createdAt,value
2022-11-28T00:00:16.234Z,17.90
2022-11-28T00:03:05.488Z,17.07
2022-11-28T00:05:54.585Z,16.27
2022-11-28T00:08:46.053Z,17.93
2022-11-28T00:11:34.933Z,17.93
2022-11-28T00:14:24.076Z,17.57
2022-11-28T00:17:13.571Z,16.87
2022-11-28T00:20:02.823Z,17.73
2022-11-28T00:22:52.286Z,16.87
2022-11-28T00:25:42.767Z,15.73
2022-11-28T00:28:32.223Z,16.10
2022-11-28T00:31:23.255Z,16.50
2022-11-28T00:34:13.218Z,16.10
2022-11-28T00:37:02.938Z,15.83
2022-11-28T00:39:52.531Z,15.33
2022-11-28T00:42:43.068Z,15.87
2022-11-28T00:45:32.264Z,14.77
2022-11-28T00:48:21.634Z,15.53
2022-11-28T00:51:12.848Z,15.20
2022-11-28T00:54:03.135Z,14.30
2022-11-28T00:56:52.796Z,14.53
2022-11-28T00:59:43.455Z,14.60
2022-11-28T01:02:32.756Z,13.73
2022-11-28T01:05:22.085Z,13.97
2022-11-28T01:08:11.722Z,13.50
2022-11-28T01:11:01.207Z,13.87
2022-11-28T01:13:50.294Z,14.67
2022-11-28T01:16:41.601Z,13.40
2022-11-28T01:19:31.088Z,13.93
2022-11-28T01:22:37.001Z,14.27
2022-11-28T01:25:26.602Z,13.57
2022-11-28T01:28:16.232Z,13.43
2022-11-28T01:31:07.571Z,13.80
2022-11-28T01:33:58.322Z,13.63
2022-11-28T01:36:47.360Z,13.70
2022-11-28T01:39:36.648Z,13.43
2022-11-28T01:42:26.307Z,12.73
2022-11-28T01:45:20.089Z,13.37
2022-11-28T01:48:11.529Z,14.13
2022-11-28T01:51:08.731Z,14.67
2022-11-28T01:53:58.523Z,13.50
2022-11-28T01:56:52.163Z,14.27
2022-11-28T01:59:43.774Z,12.13
2022-11-28T02:02:37.391Z,13.57
2022-11-28T02:05:26.914Z,13.37
2022-11-28T02:08:17.488Z,12.57
2022-11-28T02:11:35.140Z,11.73
2022-11-28T02:14:42.325Z,11.40
2022-11-28T02:17:43.879Z,10.87
2022-11-28T02:21:06.341Z,10.93
2022-11-28T02:24:34.657Z,10.50
2022-11-28T02:27:45.609Z,10.50
2022-11-28T02:30:46.953Z,11.73
2022-11-28T02:33:42.228Z,11.57
2022-11-28T02:36:36.851Z,11.07
2022-11-28T02:39:33.103Z,11.07
2022-11-28T02:42:27.426Z,10.73
2022-11-28T02:45:24.906Z,10.80
2022-11-28T02:48:21.169Z,10.47
2022-11-28T02:51:17.785Z,11.00
2022-11-28T02:54:11.773Z,10.63
2022-11-28T02:57:00.751Z,10.70
2022-11-28T02:59:52.240Z,11.03
2022-11-28T03:02:42.064Z,11.10
2022-11-28T03:05:41.689Z,11.70
2022-11-28T03:08:49.283Z,10.83
2022-11-28T03:11:48.367Z,10.43
2022-11-28T03:14:52.870Z,10.77
2022-11-28T03:17:53.647Z,11.03
2022-11-28T03:20:49.764Z,9.97
2022-11-28T03:23:46.609Z,11.93
2022-11-28T03:26:41.755Z,11.13
2022-11-28T03:29:35.548Z,11.20
2022-11-28T03:32:29.303Z,11.10
2022-11-28T03:35:21.932Z,10.77
2022-11-28T03:38:17.039Z,10.90
2022-11-28T03:41:12.288Z,11.10
2022-11-28T03:44:04.791Z,10.63
2022-11-28T03:46:56.593Z,10.87
2022-11-28T03:49:51.955Z,10.17
2022-11-28T03:52:49.045Z,10.77
2022-11-28T03:55:44.251Z,9.97
2022-11-28T03:58:39.364Z,11.37
2022-11-28T04:01:38.271Z,10.40
2022-11-28T04:04:32.693Z,10.77
2022-11-28T04:07:28.992Z,11.10
2022-11-28T04:10:22.327Z,11.03
2022-11-28T04:13:18.641Z,9.90
2022-11-28T04:16:21.889Z,10.50
2022-11-28T07:19:54.654Z,12.73
2022-11-28T07:22:44.717Z,14.33
2022-11-28T07:25:33.783Z,14.30
2022-11-28T07:28:23.547Z,14.33
2022-11-28T07:31:16.301Z,16.17
2022-11-28T07:34:05.285Z,14.97
2022-11-28T07:36:55.700Z,15.80
2022-11-28T07:39:45.408Z,16.43
2022-11-28T07:42:34.872Z,14.37
2022-11-28T07:45:36.848Z,15.80
2022-11-28T07:48:33.478Z,14.90
2022-11-28T07:51:25.997Z,20.17
2022-11-28T07:54:16.636Z,18.53
2022-11-28T07:57:12.706Z,16.33
2022-11-28T08:00:02.284Z,14.87
2022-11-28T08:02:51.546Z,17.27
2022-11-28T08:05:42.470Z,15.13
2022-11-28T08:08:31.790Z,16.10
2022-11-28T08:11:23.795Z,16.57
2022-11-28T08:14:14.481Z,16.30
2022-11-28T08:17:03.804Z,14.13
2022-11-28T08:19:53.020Z,14.90
2022-11-28T08:22:42.666Z,15.37
2022-11-28T08:25:31.696Z,17.00
2022-11-28T08:28:22.367Z,18.70
2022-11-28T08:31:12.542Z,17.77
2022-11-28T08:34:04.319Z,18.13
2022-11-28T08:36:54.029Z,16.87
2022-11-28T08:39:42.997Z,17.37
2022-11-28T08:42:32.203Z,17.27
2022-11-28T08:45:22.596Z,17.63
2022-11-28T08:48:11.487Z,17.30
2022-11-28T08:51:00.764Z,18.20
2022-11-28T08:53:51.773Z,17.53
2022-11-28T08:56:45.406Z,18.10
2022-11-28T08:59:34.834Z,18.93
2022-11-28T09:02:26.331Z,17.93
2022-11-28T09:05:15.852Z,19.60
2022-11-28T09:08:08.839Z,19.87
2022-11-28T09:10:59.795Z,19.97
2022-11-28T09:13:49.026Z,20.03
2022-11-28T09:16:40.022Z,21.43
2022-11-28T09:19:30.876Z,20.30
2022-11-28T09:22:20.524Z,19.80
2022-11-28T09:25:10.512Z,19.87
2022-11-28T09:28:01.529Z,20.17
2022-11-28T09:30:50.414Z,21.97
2022-11-28T09:33:39.549Z,20.37
2022-11-28T09:36:30.471Z,19.37
2022-11-28T09:39:19.944Z,19.53
2022-11-28T09:42:17.130Z,20.23
2022-11-28T09:45:13.167Z,21.30
2022-11-28T09:48:07.844Z,21.33
2022-11-28T09:51:03.253Z,22.37
2022-11-28T09:54:04.016Z,22.87
2022-11-28T09:56:53.448Z,22.83
2022-11-28T09:59:43.141Z,22.50
2022-11-28T10:02:37.254Z,21.77
2022-11-28T10:05:35.332Z,21.47
2022-11-28T10:08:33.654Z,23.87
2022-11-28T10:11:35.302Z,23.47
2022-11-28T10:14:56.046Z,23.70
2022-11-28T10:17:54.883Z,22.33
2022-11-28T10:20:47.154Z,22.73
2022-11-28T10:23:40.873Z,23.00
2022-11-28T10:26:37.209Z,22.23
2022-11-28T10:29:31.085Z,22.97
2022-11-28T10:32:25.664Z,22.73
2022-11-28T10:35:28.726Z,27.87
2022-11-28T10:38:21.412Z,24.53
2022-11-28T10:41:17.652Z,23.67
2022-11-28T10:44:19.990Z,22.77
2022-11-28T10:47:18.701Z,22.07
2022-11-28T10:50:17.333Z,22.33
2022-11-28T10:53:16.750Z,22.53
2022-11-28T10:56:15.968Z,24.50
2022-11-28T10:59:15.795Z,23.60
2022-11-28T11:02:28.145Z,22.87
2022-11-28T11:05:20.077Z,24.20
2022-11-28T11:08:19.896Z,23.70
2022-11-28T11:11:25.501Z,24.53
2022-11-28T11:14:16.711Z,23.83
2022-11-28T11:17:05.585Z,24.33
2022-11-28T11:19:54.977Z,24.00
2022-11-28T11:22:56.471Z,24.53
2022-11-28T11:25:52.624Z,24.03
2022-11-28T11:28:48.972Z,26.10
2022-11-28T11:31:45.145Z,25.47
2022-11-28T11:34:40.435Z,23.60
2022-11-28T11:37:36.719Z,24.87
2022-11-28T11:40:30.397Z,26.90
2022-11-28T11:43:30.896Z,25.43
2022-11-28T11:46:19.895Z,25.07
2022-11-28T11:49:31.024Z,25.43
2022-11-28T11:52:24.549Z,25.77
2022-11-28T11:55:16.905Z,25.80
2022-11-28T11:58:07.361Z,28.97
2022-11-28T12:00:59.970Z,25.50
2022-11-28T12:03:54.952Z,25.63
2022-11-28T12:06:52.945Z,28.97
2022-11-28T12:09:45.773Z,25.47
2022-11-28T12:12:39.201Z,26.57
2022-11-28T12:15:41.448Z,25.93
2022-11-28T12:18:43.441Z,25.87
2022-11-28T12:21:45.531Z,27.20
2022-11-28T12:24:45.648Z,27.40
2022-11-28T12:27:52.589Z,25.77
2022-11-28T12:30:55.223Z,26.67
2022-11-28T12:33:54.873Z,25.97
2022-11-28T12:36:53.152Z,27.03
2022-11-28T12:39:54.598Z,27.07
2022-11-28T12:42:58.735Z,28.97
2022-11-28T12:45:54.809Z,26.43
2022-11-28T12:48:55.143Z,29.77
2022-11-28T12:51:58.448Z,28.20
2022-11-28T12:55:22.392Z,26.83
2022-11-28T12:58:18.682Z,28.20
2022-11-28T13:01:22.395Z,29.30
2022-11-28T13:04:28.748Z,28.20
2022-11-28T13:07:28.008Z,26.43
2022-11-28T13:10:25.344Z,26.97
2022-11-28T13:13:19.291Z,28.87
2022-11-28T13:16:23.619Z,28.20
2022-11-28T13:19:27.175Z,27.80
2022-11-28T13:22:23.918Z,27.27
2022-11-28T13:25:26.651Z,28.30
2022-11-28T13:28:21.652Z,28.07
2022-11-28T13:31:22.763Z,28.43
2022-11-28T13:34:17.128Z,27.03
2022-11-28T13:40:30.076Z,27.90
2022-11-28T13:43:26.340Z,27.53
2022-11-28T13:46:18.231Z,26.70
2022-11-28T13:49:15.193Z,28.77
2022-11-28T13:52:41.495Z,31.10
2022-11-28T13:55:47.079Z,30.37
2022-11-28T13:58:45.233Z,28.13
2022-11-28T14:01:45.910Z,27.63
2022-11-28T14:04:35.243Z,26.80
2022-11-28T14:07:32.007Z,27.53
2022-11-28T14:10:42.041Z,27.37
2022-11-28T14:13:52.635Z,26.83
2022-11-28T14:16:56.122Z,27.40
2022-11-28T14:19:57.731Z,27.37
2022-11-28T14:23:04.425Z,28.00
2022-11-28T14:25:55.312Z,28.53
2022-11-28T14:28:47.127Z,28.10
2022-11-28T14:31:38.951Z,26.67
2022-11-28T14:34:40.859Z,26.87
2022-11-28T14:37:53.014Z,27.23
2022-11-28T14:41:06.984Z,29.20
2022-11-28T14:44:35.959Z,28.43
2022-11-28T14:47:31.945Z,27.50
2022-11-28T14:50:49.970Z,28.23
2022-11-28T14:53:44.841Z,29.70
2022-11-28T14:56:36.700Z,29.53
2022-11-28T14:59:31.373Z,28.53
2022-11-28T15:02:52.989Z,28.47
2022-11-28T15:05:46.858Z,27.80
2022-11-28T15:08:55.538Z,34.20
2022-11-28T15:11:59.979Z,32.23
2022-11-28T15:14:56.359Z,30.80
2022-11-28T15:17:47.896Z,31.80
2022-11-28T15:20:42.486Z,28.27
2022-11-28T15:23:33.139Z,31.07
2022-11-28T15:26:24.643Z,30.10
2022-11-28T15:29:21.699Z,29.90
2022-11-28T15:32:16.781Z,28.07
2022-11-28T15:35:12.545Z,27.73
2022-11-28T15:38:02.116Z,29.13
2022-11-28T15:40:52.977Z,29.83
2022-11-28T15:43:47.142Z,28.43
2022-11-28T15:46:36.728Z,29.27
2022-11-28T15:49:31.143Z,28.80
2022-11-28T15:52:20.972Z,28.87
2022-11-28T15:55:17.615Z,28.13
2022-11-28T15:58:19.909Z,29.03
2022-11-28T16:01:14.120Z,28.50
2022-11-28T16:04:06.709Z,29.13
2022-11-28T16:07:01.422Z,28.57
2022-11-28T16:10:00.675Z,26.73
2022-11-28T16:12:50.745Z,29.33
2022-11-28T16:15:41.575Z,29.77
2022-11-28T16:18:33.927Z,30.30
2022-11-28T16:21:26.807Z,28.17
2022-11-28T16:24:27.725Z,29.87
2022-11-28T16:27:35.341Z,30.17
2022-11-28T16:30:36.862Z,30.47
2022-11-28T16:33:40.104Z,30.73
2022-11-28T16:36:34.083Z,30.57
2022-11-28T16:39:26.018Z,31.83
2022-11-28T16:42:20.500Z,31.43
2022-11-28T16:45:13.008Z,30.07
2022-11-28T16:48:09.923Z,30.03
2022-11-28T16:51:30.769Z,31.47
2022-11-28T16:54:31.025Z,30.47
2022-11-28T16:57:22.439Z,29.63
2022-11-28T17:00:12.639Z,28.80
2022-11-28T17:03:01.920Z,30.30
2022-11-28T17:05:51.117Z,29.57
2022-11-28T17:08:40.096Z,29.53
2022-11-28T17:11:34.267Z,29.97
2022-11-28T17:14:23.285Z,35.63
2022-11-28T17:17:14.885Z,36.77
2022-11-28T17:20:05.112Z,35.60
2022-11-28T17:22:56.556Z,33.80
2022-11-28T17:25:46.007Z,31.37
2022-11-28T17:28:36.711Z,32.30
2022-11-28T17:31:26.271Z,34.10
2022-11-28T17:34:17.855Z,31.83
2022-11-28T17:37:06.742Z,31.63
2022-11-28T17:40:13.415Z,31.13
2022-11-28T17:43:03.176Z,32.50
2022-11-28T17:45:54.309Z,31.10
2022-11-28T17:48:43.883Z,32.53
2022-11-28T17:51:33.257Z,33.40
2022-11-28T17:54:24.089Z,33.97
2022-11-28T17:57:13.111Z,34.30
2022-11-28T18:00:02.552Z,34.57
2022-11-28T18:02:52.987Z,35.43
2022-11-28T18:05:43.465Z,34.70
2022-11-28T18:08:33.267Z,32.07
2022-11-28T18:11:22.405Z,33.60
2022-11-28T18:14:11.515Z,33.27
2022-11-28T18:17:00.799Z,33.33
2022-11-28T18:19:57.176Z,33.33
2022-11-28T18:22:46.820Z,33.10
2022-11-28T18:25:36.452Z,32.70
2022-11-28T18:28:25.755Z,31.90
2022-11-28T18:31:17.793Z,31.47
2022-11-28T18:34:08.682Z,32.63
2022-11-28T18:37:00.885Z,31.60
2022-11-28T18:39:49.894Z,33.90
2022-11-28T18:42:38.937Z,35.70
2022-11-28T18:45:27.575Z,33.13
2022-11-28T18:48:16.712Z,34.23
2022-11-28T18:51:13.227Z,34.53
2022-11-28T18:54:04.874Z,32.30
2022-11-28T18:56:54.584Z,32.97
2022-11-28T18:59:51.243Z,31.07
2022-11-28T19:02:43.679Z,36.78
2022-11-28T19:05:38.959Z,32.43
2022-11-28T19:08:28.728Z,31.53
2022-11-28T19:11:19.664Z,32.20
2022-11-28T19:14:09.807Z,30.30
2022-11-28T19:16:58.673Z,32.03
2022-11-28T19:19:48.425Z,30.33
2022-11-28T19:22:37.462Z,31.10
2022-11-28T19:25:27.778Z,32.37
2022-11-28T19:28:19.174Z,31.50
2022-11-28T19:31:08.756Z,32.90
2022-11-28T19:34:01.328Z,36.40
2022-11-28T19:36:52.219Z,36.63
2022-11-28T19:39:41.710Z,33.40
2022-11-28T19:42:31.555Z,33.00
2022-11-28T19:45:22.422Z,33.60
2022-11-28T19:48:11.727Z,35.13
2022-11-28T19:51:00.265Z,35.43
2022-11-28T19:53:49.416Z,33.37
2022-11-28T19:56:38.904Z,33.73
2022-11-28T19:59:28.956Z,35.70
2022-11-28T20:02:22.352Z,33.80
2022-11-28T20:05:11.790Z,33.73
2022-11-28T20:08:01.080Z,34.20
2022-11-28T20:10:50.788Z,34.73
2022-11-28T20:13:40.217Z,35.33
2022-11-28T20:16:30.243Z,35.80
2022-11-28T20:19:21.870Z,35.43
2022-11-28T20:22:10.728Z,37.73
2022-11-28T20:25:00.104Z,37.73
2022-11-28T20:27:49.294Z,36.93
2022-11-28T20:30:38.232Z,37.23
2022-11-28T20:33:27.438Z,39.77
2022-11-28T20:36:19.751Z,38.63
2022-11-28T20:39:09.633Z,38.83
2022-11-28T20:42:00.010Z,37.97
2022-11-28T20:44:48.879Z,37.70
2022-11-28T20:47:37.966Z,39.47
2022-11-28T20:50:26.652Z,39.20
2022-11-28T20:53:18.142Z,37.97
2022-11-28T20:56:12.462Z,37.33
2022-11-28T20:59:02.558Z,37.70
2022-11-28T21:01:51.908Z,36.33
2022-11-28T21:04:40.777Z,36.90
2022-11-28T21:07:31.131Z,36.17
2022-11-28T21:10:21.081Z,37.23
2022-11-28T21:13:09.701Z,35.37
2022-11-28T21:15:58.617Z,37.50
2022-11-28T21:18:49.433Z,37.53
2022-11-28T21:21:42.846Z,37.27
2022-11-28T21:24:32.117Z,35.00
2022-11-28T21:27:22.486Z,35.83
2022-11-28T21:30:11.878Z,36.90
2022-11-28T21:33:01.106Z,36.53
2022-11-28T21:35:50.618Z,36.80
2022-11-28T21:38:40.263Z,37.03
2022-11-28T21:41:31.294Z,37.27
2022-11-28T21:44:21.593Z,38.47
2022-11-28T22:18:59.414Z,36.87
2022-11-28T22:21:53.100Z,36.53
2022-11-28T22:24:42.543Z,37.77
2022-11-28T22:27:32.413Z,37.73
2022-11-28T22:30:21.893Z,39.03
2022-11-28T22:33:10.962Z,37.83
2022-11-28T22:36:07.682Z,38.37
2022-11-28T22:38:59.454Z,35.90
2022-11-28T22:41:49.219Z,35.93
2022-11-28T22:44:38.490Z,36.17
2022-11-28T22:47:27.848Z,38.97
2022-11-28T22:50:17.175Z,35.10
2022-11-28T22:53:07.450Z,37.37
2022-11-28T22:55:56.609Z,35.67
2022-11-28T22:58:46.655Z,36.03
2022-11-28T23:01:35.627Z,36.50
2022-11-28T23:04:24.994Z,37.70
2022-11-28T23:07:14.082Z,36.10
2022-11-28T23:10:04.492Z,37.57
2022-11-28T23:12:53.738Z,37.60
2022-11-28T23:15:45.231Z,36.40
2022-11-28T23:18:37.790Z,38.90
2022-11-28T23:21:29.719Z,36.43
2022-11-28T23:24:20.974Z,38.13
2022-11-28T23:27:11.373Z,37.43
2022-11-28T23:30:00.591Z,36.00
2022-11-28T23:32:49.480Z,37.40
2022-11-28T23:35:38.854Z,37.27
2022-11-28T23:38:28.238Z,37.17
2022-11-28T23:41:17.612Z,36.63
2022-11-28T23:44:07.920Z,36.47
2022-11-28T23:46:57.133Z,37.37
2022-11-28T23:49:46.184Z,35.63
2022-11-28T23:52:35.417Z,37.80
2022-11-28T23:55:24.236Z,41.30
2022-11-28T23:58:13.742Z,40.03
